createdAt,value
2022-09-23T00:02:16.658Z,3.40
2022-09-23T00:04:45.124Z,2.87
2022-09-23T00:07:13.433Z,2.63
2022-09-23T00:09:43.115Z,2.40
2022-09-23T00:12:11.423Z,3.13
2022-09-23T00:14:40.400Z,3.17
2022-09-23T00:17:08.810Z,2.43
2022-09-23T00:19:39.567Z,2.43
2022-09-23T00:22:08.878Z,2.40
2022-09-23T00:24:37.180Z,2.20
2022-09-23T00:27:07.038Z,2.40
2022-09-23T00:29:37.005Z,2.60
2022-09-23T00:32:05.978Z,2.47
2022-09-23T00:34:34.529Z,2.30
2022-09-23T00:37:02.804Z,2.43
2022-09-23T00:39:31.315Z,2.70
2022-09-23T00:41:59.715Z,2.60
2022-09-23T00:44:51.133Z,2.63
2022-09-23T00:47:23.564Z,2.40
2022-09-23T00:50:00.239Z,2.20
2022-09-23T00:52:29.148Z,2.30
2022-09-23T00:55:01.106Z,2.40
2022-09-23T00:57:31.284Z,2.20
2022-09-23T01:00:01.172Z,2.10
2022-09-23T01:02:29.681Z,2.27
2022-09-23T01:04:58.192Z,2.63
2022-09-23T01:07:26.732Z,2.50
2022-09-23T01:09:55.187Z,2.13
2022-09-23T01:12:37.155Z,2.20
2022-09-23T01:15:14.242Z,2.47
2022-09-23T01:17:51.231Z,3.20
2022-09-23T01:20:56.360Z,9.37
2022-09-23T01:23:51.887Z,4.53
2022-09-23T01:26:47.797Z,6.70
2022-09-23T01:29:33.381Z,4.73
2022-09-23T01:32:10.549Z,2.77
2022-09-23T01:34:47.817Z,2.63
2022-09-23T01:37:24.819Z,2.50
2022-09-23T01:40:01.790Z,2.37
2022-09-23T01:42:36.396Z,3.00
2022-09-23T01:45:12.688Z,2.60
2022-09-23T01:47:48.751Z,2.77
2022-09-23T01:50:34.436Z,3.20
2022-09-23T01:53:07.131Z,2.83
2022-09-23T01:55:40.423Z,2.60
2022-09-23T01:58:13.202Z,2.60
2022-09-23T02:00:55.855Z,2.80
2022-09-23T02:03:29.427Z,2.93
2022-09-23T02:06:02.795Z,2.77
2022-09-23T02:08:35.950Z,2.53
2022-09-23T02:11:08.077Z,2.47
2022-09-23T02:13:42.684Z,2.33
2022-09-23T02:16:16.184Z,2.53
2022-09-23T02:18:52.686Z,2.33
2022-09-23T02:21:25.181Z,2.20
2022-09-23T02:23:59.520Z,2.00
2022-09-23T02:26:31.760Z,2.30
2022-09-23T02:29:09.140Z,2.50
2022-09-23T02:31:41.873Z,2.57
2022-09-23T02:34:33.733Z,2.30
2022-09-23T02:37:11.690Z,2.50
2022-09-23T02:39:51.780Z,2.77
2022-09-23T02:42:24.346Z,2.53
2022-09-23T02:44:52.814Z,2.37
2022-09-23T02:47:26.007Z,2.83
2022-09-23T02:49:56.433Z,2.57
2022-09-23T02:52:25.473Z,2.70
2022-09-23T02:54:54.163Z,2.70
2022-09-23T02:57:22.734Z,2.40
2022-09-23T02:59:51.715Z,2.77
2022-09-23T03:02:51.860Z,2.40
2022-09-23T03:05:25.819Z,2.60
2022-09-23T03:08:12.703Z,2.90
2022-09-23T03:10:53.078Z,2.07
2022-09-23T03:13:31.309Z,2.10
2022-09-23T03:16:11.305Z,2.57
2022-09-23T03:18:43.812Z,2.50
2022-09-23T03:21:20.864Z,2.60
2022-09-23T03:23:50.159Z,2.60
2022-09-23T03:26:22.826Z,2.73
2022-09-23T03:28:51.939Z,2.70
2022-09-23T03:31:20.472Z,2.60
2022-09-23T03:33:52.422Z,2.77
2022-09-23T03:36:45.456Z,2.30
2022-09-23T03:39:21.664Z,2.50
2022-09-23T03:41:53.932Z,3.00
2022-09-23T03:44:23.435Z,2.80
2022-09-23T03:46:51.884Z,2.50
2022-09-23T03:49:27.423Z,2.60
2022-09-23T03:51:57.148Z,2.70
2022-09-23T03:54:25.932Z,2.40
2022-09-23T03:56:57.643Z,2.50
2022-09-23T03:59:26.246Z,2.87
2022-09-23T04:01:55.608Z,2.93
2022-09-23T04:04:24.024Z,2.60
2022-09-23T04:06:52.373Z,2.17
2022-09-23T04:09:22.106Z,2.10
2022-09-23T04:11:50.971Z,2.70
2022-09-23T04:14:20.546Z,2.57
2022-09-23T04:16:49.741Z,2.50
2022-09-23T04:19:18.573Z,2.40
2022-09-23T04:21:47.540Z,2.40
2022-09-23T04:24:16.630Z,2.20
2022-09-23T04:26:46.486Z,2.37
2022-09-23T04:29:14.905Z,2.60
2022-09-23T04:31:43.240Z,2.40
2022-09-23T04:34:12.025Z,2.50
2022-09-23T04:36:40.855Z,2.40
2022-09-23T04:39:09.260Z,2.80
2022-09-23T04:41:37.952Z,2.50
2022-09-23T04:44:07.759Z,2.60
2022-09-23T04:46:36.179Z,2.50
2022-09-23T04:49:04.512Z,2.60
2022-09-23T04:51:32.838Z,2.40
2022-09-23T04:54:01.122Z,2.60
2022-09-23T04:56:32.592Z,2.53
2022-09-23T04:59:01.934Z,2.53
2022-09-23T05:01:34.458Z,2.60
2022-09-23T05:04:05.421Z,2.40
2022-09-23T05:06:35.542Z,2.23
2022-09-23T05:09:07.300Z,2.63
2022-09-23T05:11:36.378Z,2.27
2022-09-23T05:14:04.984Z,2.10
2022-09-23T05:16:35.911Z,2.30
2022-09-23T05:19:04.577Z,2.60
2022-09-23T05:21:32.847Z,2.23
2022-09-23T05:24:01.147Z,2.60
2022-09-23T05:26:31.928Z,2.80
2022-09-23T05:29:01.195Z,3.90
2022-09-23T05:31:31.342Z,2.37
2022-09-23T05:34:02.612Z,2.50
2022-09-23T05:36:37.613Z,2.40
2022-09-23T05:39:07.723Z,2.50
2022-09-23T05:41:36.602Z,2.70
2022-09-23T05:44:05.300Z,2.47
2022-09-23T05:46:34.144Z,2.50
2022-09-23T05:49:05.948Z,2.30
2022-09-23T05:51:35.507Z,3.00
2022-09-23T05:54:05.428Z,2.70
2022-09-23T05:56:35.769Z,2.40
2022-09-23T05:59:05.131Z,2.43
2022-09-23T06:01:35.618Z,2.37
2022-09-23T06:04:08.230Z,2.33
2022-09-23T06:06:38.871Z,2.53
2022-09-23T06:09:08.225Z,2.50
2022-09-23T06:11:37.282Z,2.70
2022-09-23T06:14:05.794Z,2.27
2022-09-23T06:16:36.645Z,1.90
2022-09-23T06:19:07.196Z,1.87
2022-09-23T06:21:38.371Z,2.07
2022-09-23T06:24:08.028Z,2.07
2022-09-23T06:26:37.820Z,2.10
2022-09-23T06:29:11.552Z,2.10
2022-09-23T06:31:42.117Z,2.07
2022-09-23T06:34:14.858Z,2.37
2022-09-23T06:36:45.758Z,2.23
2022-09-23T06:39:15.886Z,2.90
2022-09-23T06:41:45.232Z,3.10
2022-09-23T06:44:14.522Z,2.30
2022-09-23T06:46:42.875Z,2.73
2022-09-23T06:49:13.368Z,2.70
2022-09-23T06:51:42.317Z,2.60
2022-09-23T06:54:11.178Z,2.20
2022-09-23T06:56:40.038Z,2.80
2022-09-23T06:59:10.742Z,1.97
2022-09-23T07:01:39.349Z,1.60
2022-09-23T07:04:08.376Z,1.70
2022-09-23T07:06:38.260Z,1.63
2022-09-23T07:09:08.130Z,1.70
2022-09-23T07:11:37.684Z,1.60
2022-09-23T07:14:06.348Z,1.60
2022-09-23T07:16:34.771Z,1.80
2022-09-23T07:19:03.073Z,1.53
2022-09-23T07:21:31.453Z,1.70
2022-09-23T07:24:01.228Z,1.70
2022-09-23T07:26:29.595Z,1.70
2022-09-23T07:29:04.898Z,1.90
2022-09-23T07:31:39.746Z,1.77
2022-09-23T07:34:09.960Z,1.60
2022-09-23T07:36:40.732Z,1.97
2022-09-23T07:39:13.277Z,1.50
2022-09-23T07:41:44.368Z,1.60
2022-09-23T07:44:13.425Z,1.47
2022-09-23T07:46:41.812Z,1.70
2022-09-23T07:49:10.624Z,1.30
2022-09-23T07:51:40.852Z,1.90
2022-09-23T07:54:13.224Z,1.73
2022-09-23T07:56:42.488Z,1.83
2022-09-23T07:59:15.386Z,1.40
2022-09-23T08:01:46.201Z,1.30
2022-09-23T08:04:17.717Z,1.80
2022-09-23T08:06:48.470Z,1.20
2022-09-23T08:09:20.497Z,1.73
2022-09-23T08:11:50.712Z,1.40
2022-09-23T08:14:19.688Z,1.20
2022-09-23T08:16:48.204Z,1.30
2022-09-23T08:19:17.044Z,1.40
2022-09-23T08:21:47.553Z,1.37
2022-09-23T08:24:18.799Z,1.23
2022-09-23T08:26:48.475Z,1.10
2022-09-23T08:29:18.707Z,1.30
2022-09-23T08:31:47.184Z,1.40
2022-09-23T08:34:15.504Z,1.20
2022-09-23T08:36:43.952Z,1.00
2022-09-23T08:39:15.192Z,1.40
2022-09-23T08:41:59.237Z,1.13
2022-09-23T08:44:33.497Z,1.53
2022-09-23T08:47:10.375Z,1.13
2022-09-23T08:49:47.368Z,1.10
2022-09-23T08:52:21.108Z,1.20
2022-09-23T08:54:54.559Z,1.40
2022-09-23T08:57:37.262Z,1.73
2022-09-23T09:00:06.623Z,1.20
2022-09-23T09:02:36.795Z,1.40
2022-09-23T09:05:10.102Z,1.30
2022-09-23T09:07:42.118Z,1.23
2022-09-23T09:10:18.749Z,1.77
2022-09-23T09:12:51.027Z,1.50
2022-09-23T09:15:24.826Z,1.37
2022-09-23T09:18:02.414Z,1.40
2022-09-23T09:20:49.677Z,1.30
2022-09-23T09:23:23.343Z,1.20
2022-09-23T09:25:53.648Z,1.50
2022-09-23T09:28:27.959Z,1.43
2022-09-23T09:31:01.053Z,1.67
2022-09-23T09:33:37.471Z,1.27
2022-09-23T09:36:15.853Z,1.77
2022-09-23T09:38:44.166Z,1.50
2022-09-23T09:41:17.012Z,1.67
2022-09-23T09:43:57.702Z,1.40
2022-09-23T09:46:54.587Z,1.50
2022-09-23T09:49:30.958Z,1.60
2022-09-23T09:52:22.643Z,1.70
2022-09-23T09:54:52.054Z,1.30
2022-09-23T09:57:35.167Z,1.40
2022-09-23T10:00:35.524Z,1.33
2022-09-23T10:03:09.181Z,1.20
2022-09-23T10:05:50.205Z,1.30
2022-09-23T10:08:26.804Z,1.50
2022-09-23T10:11:02.439Z,1.63
2022-09-23T10:13:31.679Z,1.30
2022-09-23T10:16:04.001Z,1.50
2022-09-23T10:18:35.912Z,1.40
2022-09-23T10:21:09.139Z,1.50
2022-09-23T10:23:42.157Z,1.60
2022-09-23T10:26:12.343Z,1.50
2022-09-23T10:28:50.276Z,1.30
2022-09-23T10:31:25.809Z,1.50
2022-09-23T10:33:57.321Z,1.30
2022-09-23T10:36:26.004Z,1.40
2022-09-23T10:39:18.701Z,1.47
2022-09-23T10:42:21.168Z,1.20
2022-09-23T10:45:19.860Z,1.43
2022-09-23T10:47:59.468Z,1.90
2022-09-23T10:50:38.975Z,1.50
2022-09-23T10:53:19.348Z,1.20
2022-09-23T10:56:12.162Z,1.73
2022-09-23T10:59:10.344Z,1.63
2022-09-23T11:01:44.932Z,1.40
2022-09-23T11:04:47.995Z,1.43
2022-09-23T11:07:26.654Z,1.67
2022-09-23T11:10:35.375Z,1.40
2022-09-23T11:13:19.685Z,1.60
2022-09-23T11:15:58.585Z,1.50
2022-09-23T11:18:48.016Z,1.87
2022-09-23T11:21:39.017Z,1.53
2022-09-23T11:24:28.066Z,1.70
2022-09-23T11:27:03.880Z,1.53
2022-09-23T11:29:55.192Z,1.40
2022-09-23T11:32:48.250Z,1.60
2022-09-23T11:35:21.349Z,1.50
2022-09-23T11:37:56.714Z,1.80
2022-09-23T11:40:32.115Z,1.43
2022-09-23T11:43:07.243Z,1.70
2022-09-23T11:45:40.905Z,1.90
2022-09-23T11:48:15.133Z,1.30
2022-09-23T11:50:49.092Z,1.57
2022-09-23T11:53:24.664Z,1.70
2022-09-23T11:55:58.693Z,1.97
2022-09-23T11:58:30.549Z,1.50
2022-09-23T12:01:03.951Z,1.60
2022-09-23T12:03:44.625Z,1.60
2022-09-23T12:06:17.064Z,1.80
2022-09-23T12:08:47.259Z,2.00
2022-09-23T12:11:31.383Z,1.80
2022-09-23T12:14:10.997Z,1.63
2022-09-23T12:16:59.666Z,1.50
2022-09-23T12:19:43.859Z,1.53
2022-09-23T12:22:29.501Z,1.70
2022-09-23T12:25:10.396Z,2.73
2022-09-23T12:27:43.665Z,1.57
2022-09-23T12:30:27.796Z,1.70
2022-09-23T12:33:09.471Z,1.60
2022-09-23T12:35:42.576Z,1.50
2022-09-23T12:38:16.028Z,1.40
2022-09-23T12:40:45.787Z,1.40
2022-09-23T12:43:19.316Z,1.60
2022-09-23T12:45:48.126Z,1.50
2022-09-23T12:48:45.902Z,1.70
2022-09-23T12:51:22.125Z,2.17
2022-09-23T12:53:55.794Z,1.30
2022-09-23T12:56:50.564Z,1.90
2022-09-23T12:59:26.304Z,1.73
2022-09-23T13:01:55.678Z,1.93
2022-09-23T13:04:50.746Z,1.50
2022-09-23T13:07:23.783Z,2.00
2022-09-23T13:09:57.178Z,1.50
2022-09-23T13:12:32.154Z,2.30
2022-09-23T13:15:06.433Z,1.47
2022-09-23T13:17:38.303Z,1.40
2022-09-23T13:20:29.176Z,1.60
2022-09-23T13:23:26.789Z,1.50
2022-09-23T13:25:58.106Z,1.30
2022-09-23T13:28:33.538Z,1.67
2022-09-23T13:31:06.468Z,1.53
2022-09-23T13:33:42.477Z,1.97
2022-09-23T13:36:13.835Z,1.47
2022-09-23T13:38:43.686Z,1.53
2022-09-23T13:41:16.230Z,1.50
2022-09-23T13:43:47.548Z,1.37
2022-09-23T13:46:20.345Z,1.40
2022-09-23T13:48:51.882Z,1.47
2022-09-23T13:51:24.620Z,1.60
2022-09-23T13:53:56.214Z,1.47
2022-09-23T13:56:25.821Z,1.70
2022-09-23T13:58:55.847Z,1.50
2022-09-23T14:01:31.423Z,1.37
2022-09-23T14:04:00.306Z,1.30
2022-09-23T14:06:30.656Z,1.80
2022-09-23T14:09:02.527Z,1.40
2022-09-23T14:11:33.813Z,1.60
2022-09-23T14:14:07.234Z,1.30
2022-09-23T14:16:39.346Z,1.23
2022-09-23T14:19:08.923Z,1.70
2022-09-23T14:21:39.051Z,1.47
2022-09-23T14:24:20.938Z,1.77
2022-09-23T14:26:53.445Z,1.43
2022-09-23T14:29:25.538Z,1.60
2022-09-23T14:31:57.751Z,1.30
2022-09-23T14:34:47.100Z,1.60
2022-09-23T14:37:41.393Z,1.40
2022-09-23T14:40:15.562Z,1.43
2022-09-23T14:42:46.476Z,1.60
2022-09-23T14:45:18.557Z,1.73
2022-09-23T14:47:50.359Z,1.40
2022-09-23T14:50:40.678Z,1.70
2022-09-23T14:53:35.250Z,1.40
2022-09-23T14:56:14.651Z,1.60
2022-09-23T14:58:51.038Z,1.50
2022-09-23T15:01:27.843Z,1.60
2022-09-23T15:03:58.353Z,1.70
2022-09-23T15:06:27.325Z,1.90
2022-09-23T15:08:57.027Z,1.70
2022-09-23T15:11:26.755Z,1.80
2022-09-23T15:13:56.230Z,1.90
2022-09-23T15:16:27.747Z,1.60
2022-09-23T15:18:57.932Z,1.33
2022-09-23T15:21:32.292Z,1.50
2022-09-23T15:24:00.683Z,1.47
2022-09-23T15:26:47.635Z,1.40
2022-09-23T15:29:16.055Z,1.53
2022-09-23T15:31:44.360Z,1.47
2022-09-23T15:34:12.732Z,1.50
2022-09-23T15:36:41.270Z,1.50
2022-09-23T15:39:12.213Z,1.80
2022-09-23T15:41:43.281Z,1.73
2022-09-23T15:44:15.218Z,1.40
2022-09-23T15:46:47.589Z,1.80
2022-09-23T15:49:23.142Z,2.00
2022-09-23T15:51:52.142Z,1.60
2022-09-23T15:54:20.452Z,1.93
2022-09-23T15:56:50.112Z,1.83
2022-09-23T15:59:19.195Z,2.30
2022-09-23T16:01:47.676Z,1.70
2022-09-23T16:04:16.982Z,1.90
2022-09-23T16:06:48.397Z,1.70
2022-09-23T16:09:16.920Z,1.80
2022-09-23T16:11:47.234Z,2.03
2022-09-23T16:14:18.031Z,1.83
2022-09-23T16:16:47.997Z,1.70
2022-09-23T16:19:17.766Z,1.90
2022-09-23T16:21:46.183Z,1.77
2022-09-23T16:24:17.940Z,1.63
2022-09-23T16:26:48.642Z,2.13
2022-09-23T16:29:18.320Z,1.70
2022-09-23T16:31:46.658Z,2.20
2022-09-23T16:34:15.001Z,2.07
2022-09-23T16:36:44.943Z,1.80
2022-09-23T16:39:14.619Z,2.10
2022-09-23T16:41:43.511Z,2.37
2022-09-23T16:44:12.605Z,2.03
2022-09-23T16:46:43.278Z,2.43
2022-09-23T16:49:12.504Z,1.83
2022-09-23T16:51:41.292Z,2.20
2022-09-23T16:54:11.959Z,1.73
2022-09-23T16:56:45.066Z,2.03
2022-09-23T16:59:13.964Z,2.30
2022-09-23T17:02:01.795Z,2.17
2022-09-23T17:04:30.255Z,2.07
2022-09-23T17:06:59.201Z,2.00
2022-09-23T17:09:30.270Z,1.70
2022-09-23T17:12:06.113Z,1.80
2022-09-23T17:14:34.640Z,1.80
2022-09-23T17:17:04.320Z,2.17
2022-09-23T17:19:34.073Z,2.00
2022-09-23T17:22:02.637Z,1.90
2022-09-23T17:24:30.993Z,1.80
2022-09-23T17:26:59.395Z,2.37
2022-09-23T17:29:29.091Z,1.90
2022-09-23T17:31:58.055Z,2.03
2022-09-23T17:34:28.928Z,2.03
2022-09-23T17:36:57.178Z,1.93
2022-09-23T17:39:25.467Z,2.10
2022-09-23T17:41:58.488Z,2.03
2022-09-23T17:44:27.004Z,2.10
2022-09-23T17:46:55.360Z,2.50
2022-09-23T17:49:24.250Z,2.40
2022-09-23T17:51:54.014Z,2.53
2022-09-23T17:54:22.805Z,2.30
2022-09-23T17:56:50.977Z,2.10
2022-09-23T17:59:19.203Z,2.10
2022-09-23T18:01:47.578Z,2.20
2022-09-23T18:04:15.962Z,2.10
2022-09-23T18:06:44.238Z,2.07
2022-09-23T18:09:14.152Z,2.33
2022-09-23T18:11:43.728Z,2.17
2022-09-23T18:14:15.350Z,2.13
2022-09-23T18:16:45.684Z,2.20
2022-09-23T18:19:16.024Z,2.53
2022-09-23T18:21:46.150Z,2.70
2022-09-23T18:24:32.848Z,2.30
2022-09-23T18:27:02.477Z,2.53
2022-09-23T18:29:31.613Z,3.10
2022-09-23T18:32:00.290Z,3.10
2022-09-23T18:34:28.795Z,2.50
2022-09-23T18:36:57.255Z,2.30
2022-09-23T18:39:26.908Z,2.50
2022-09-23T18:41:55.565Z,2.20
2022-09-23T18:44:24.450Z,2.13
2022-09-23T18:46:53.100Z,2.60
2022-09-23T18:49:38.689Z,2.20
2022-09-23T18:52:07.033Z,2.37
2022-09-23T18:54:36.755Z,2.00
2022-09-23T18:57:05.269Z,2.23
2022-09-23T18:59:33.590Z,2.30
2022-09-23T19:02:02.093Z,2.50
2022-09-23T19:04:30.502Z,2.27
2022-09-23T19:06:58.950Z,2.17
2022-09-23T19:09:27.300Z,2.20
2022-09-23T19:11:57.715Z,2.60
2022-09-23T19:14:26.710Z,2.70
2022-09-23T19:16:55.144Z,2.60
2022-09-23T19:19:23.523Z,2.33
2022-09-23T19:21:51.931Z,2.47
2022-09-23T19:24:21.049Z,2.50
2022-09-23T19:26:50.457Z,2.37
2022-09-23T19:29:21.945Z,2.30
2022-09-23T19:31:51.070Z,2.50
2022-09-23T19:34:23.678Z,2.57
2022-09-23T19:36:52.838Z,2.70
2022-09-23T19:39:22.649Z,2.77
2022-09-23T19:41:51.411Z,2.50
2022-09-23T19:44:21.425Z,2.87
2022-09-23T19:46:55.892Z,2.60
2022-09-23T19:49:25.423Z,2.60
2022-09-23T19:51:55.822Z,2.27
2022-09-23T19:54:27.139Z,2.63
2022-09-23T19:56:56.149Z,2.63
2022-09-23T19:59:26.470Z,3.20
2022-09-23T20:01:55.533Z,2.93
2022-09-23T20:04:23.865Z,2.80
2022-09-23T20:06:52.169Z,2.30
2022-09-23T20:09:20.731Z,2.40
2022-09-23T20:11:49.681Z,2.27
2022-09-23T20:14:19.320Z,2.70
2022-09-23T20:16:49.009Z,2.70
2022-09-23T20:19:17.671Z,2.87
2022-09-23T20:22:06.129Z,3.27
2022-09-23T20:24:34.481Z,2.97
2022-09-23T20:27:10.890Z,2.70
2022-09-23T20:29:39.384Z,3.10
2022-09-23T20:32:09.379Z,2.50
2022-09-23T20:34:37.773Z,2.83
2022-09-23T20:37:06.388Z,2.70
2022-09-23T20:39:34.724Z,3.03
2022-09-23T20:42:03.392Z,2.73
2022-09-23T20:44:32.092Z,2.77
2022-09-23T20:47:00.504Z,2.90
2022-09-23T20:49:34.180Z,2.70
2022-09-23T20:52:03.019Z,2.50
2022-09-23T20:54:32.049Z,3.43
2022-09-23T20:57:01.427Z,2.87
2022-09-23T20:59:29.655Z,3.10
2022-09-23T21:01:58.660Z,2.63
2022-09-23T21:04:27.358Z,2.67
2022-09-23T21:06:58.506Z,2.50
2022-09-23T21:09:28.271Z,2.83
2022-09-23T21:11:57.025Z,3.00
2022-09-23T21:14:25.724Z,2.83
2022-09-23T21:16:54.726Z,2.30
2022-09-23T21:19:24.409Z,2.60
2022-09-23T21:21:52.740Z,2.40
2022-09-23T21:25:00.385Z,2.10
2022-09-23T21:27:11.586Z,2.70
2022-09-23T21:29:40.211Z,2.80
2022-09-23T21:32:08.538Z,2.53
2022-09-23T21:34:36.858Z,3.00
2022-09-23T21:37:05.933Z,2.90
2022-09-23T21:39:35.709Z,2.43
2022-09-23T21:42:04.434Z,3.03
2022-09-23T21:44:32.757Z,3.27
2022-09-23T21:47:01.194Z,2.53
2022-09-23T21:49:29.572Z,3.03
2022-09-23T21:52:00.634Z,2.80
2022-09-23T21:54:29.677Z,2.97
2022-09-23T21:57:00.452Z,2.50
2022-09-23T21:59:29.158Z,3.57
2022-09-23T22:01:57.523Z,2.37
2022-09-23T22:04:25.940Z,2.50
2022-09-23T22:06:54.726Z,2.30
2022-09-23T22:09:23.156Z,2.90
2022-09-23T22:12:08.587Z,2.87
2022-09-23T22:14:39.125Z,2.60
2022-09-23T22:17:10.556Z,2.37
2022-09-23T22:19:44.211Z,2.67
2022-09-23T22:22:15.594Z,2.47
2022-09-23T22:24:44.855Z,2.57
2022-09-23T22:27:16.515Z,3.03
2022-09-23T22:30:03.493Z,3.10
2022-09-23T22:32:46.192Z,3.27
2022-09-23T22:35:16.712Z,2.87
2022-09-23T22:37:45.705Z,2.70
2022-09-23T22:40:16.268Z,2.73
2022-09-23T22:42:45.129Z,3.30
2022-09-23T22:45:14.929Z,2.80
2022-09-23T22:47:45.521Z,3.07
2022-09-23T22:50:15.216Z,2.73
2022-09-23T22:52:44.045Z,3.00
2022-09-23T22:55:12.881Z,2.73
2022-09-23T22:57:41.169Z,2.63
2022-09-23T23:00:12.250Z,3.00
2022-09-23T23:02:42.517Z,2.87
2022-09-23T23:05:11.109Z,2.77
2022-09-23T23:07:39.356Z,2.53
2022-09-23T23:10:10.162Z,2.87
2022-09-23T23:12:39.547Z,2.60
2022-09-23T23:15:10.570Z,2.80
2022-09-23T23:17:40.529Z,2.80
2022-09-23T23:20:10.862Z,2.80
2022-09-23T23:22:39.127Z,2.37
2022-09-23T23:25:08.258Z,2.43
2022-09-23T23:27:36.668Z,2.40
2022-09-23T23:30:05.463Z,3.07
2022-09-23T23:32:33.724Z,2.77
2022-09-23T23:35:02.046Z,2.43
2022-09-23T23:37:31.694Z,2.60
2022-09-23T23:40:00.087Z,2.90
2022-09-23T23:42:28.321Z,2.70
2022-09-23T23:44:56.672Z,2.43
2022-09-23T23:47:26.400Z,2.17
2022-09-23T23:49:54.677Z,2.30
2022-09-23T23:52:22.956Z,2.77
2022-09-23T23:54:52.705Z,2.87
2022-09-23T23:57:21.001Z,2.57
2022-09-23T23:59:49.558Z,2.60
